createdAt,value
2019-02-04T00:00:02.146Z,0
2019-02-04T00:01:12.242Z,0
2019-02-04T00:02:22.427Z,0
2019-02-04T00:03:32.298Z,0
2019-02-04T00:04:42.151Z,0
2019-02-04T00:05:52.315Z,0
2019-02-04T00:07:02.223Z,0
2019-02-04T00:08:12.361Z,0
2019-02-04T00:09:22.704Z,0
2019-02-04T00:10:33.547Z,0
2019-02-04T00:11:44.325Z,0
2019-02-04T00:12:55.070Z,0
2019-02-04T00:14:05.867Z,0
2019-02-04T00:15:16.123Z,0
2019-02-04T00:16:26.486Z,0
2019-02-04T00:17:36.913Z,0
2019-02-04T00:18:47.058Z,0
2019-02-04T00:19:57.134Z,0
2019-02-04T00:21:07.252Z,0
2019-02-04T00:22:17.432Z,0
2019-02-04T00:23:27.533Z,0
2019-02-04T00:24:37.614Z,0
2019-02-04T00:25:47.745Z,0
2019-02-04T00:27:01.342Z,0
2019-02-04T00:28:11.161Z,0
2019-02-04T00:29:21.258Z,0
2019-02-04T00:30:31.371Z,0
2019-02-04T00:31:41.465Z,0
2019-02-04T00:32:51.549Z,0
2019-02-04T00:34:01.642Z,0
2019-02-04T00:35:11.719Z,0
2019-02-04T00:36:21.555Z,0
2019-02-04T00:37:31.638Z,0
2019-02-04T00:38:41.715Z,0
2019-02-04T00:39:51.787Z,0
2019-02-04T00:41:01.625Z,0
2019-02-04T00:42:11.719Z,0
2019-02-04T00:43:21.808Z,0
2019-02-04T00:44:31.642Z,0
2019-02-04T00:45:41.717Z,0
2019-02-04T00:47:01.603Z,0
2019-02-04T00:48:11.686Z,0
2019-02-04T00:49:21.510Z,0
2019-02-04T00:50:31.587Z,0
2019-02-04T00:51:41.697Z,0
2019-02-04T00:52:51.840Z,0
2019-02-04T00:54:01.917Z,0
2019-02-04T00:55:12.017Z,0
2019-02-04T00:56:22.670Z,0
2019-02-04T00:57:33.588Z,0
2019-02-04T00:58:44.082Z,0
2019-02-04T00:59:54.555Z,0
2019-02-04T01:01:05.759Z,0
2019-02-04T01:02:16.459Z,0
2019-02-04T01:03:26.838Z,0
2019-02-04T01:04:37.081Z,0
2019-02-04T01:05:47.178Z,0
2019-02-04T01:06:56.989Z,0
2019-02-04T01:08:07.494Z,0
2019-02-04T01:09:19.932Z,0
2019-02-04T01:10:29.491Z,0
2019-02-04T01:11:39.305Z,0
2019-02-04T01:12:49.426Z,0
2019-02-04T01:13:59.564Z,0
2019-02-04T01:15:09.659Z,0
2019-02-04T01:16:19.753Z,0
2019-02-04T01:17:29.575Z,0
2019-02-04T01:18:39.650Z,0
2019-02-04T01:19:49.490Z,0
2019-02-04T01:20:59.568Z,0
2019-02-04T01:22:09.655Z,0
2019-02-04T01:23:19.721Z,0
2019-02-04T01:24:29.823Z,0
2019-02-04T01:25:39.900Z,0
2019-02-04T01:26:49.982Z,0
2019-02-04T01:28:00.058Z,0
2019-02-04T01:29:10.241Z,0
2019-02-04T01:30:20.063Z,0
2019-02-04T01:31:30.137Z,0
2019-02-04T01:32:39.951Z,0
2019-02-04T01:33:49.778Z,0
2019-02-04T01:34:59.860Z,0
2019-02-04T01:36:12.007Z,0
2019-02-04T01:37:21.831Z,0
2019-02-04T01:38:31.943Z,0
2019-02-04T01:39:41.760Z,0
2019-02-04T01:40:51.844Z,0
2019-02-04T01:42:01.692Z,0
2019-02-04T01:43:11.053Z,0
2019-02-04T01:44:20.882Z,0
2019-02-04T01:45:30.966Z,0
2019-02-04T01:46:40.811Z,0
2019-02-04T01:47:51.198Z,0
2019-02-04T01:49:01.668Z,0
2019-02-04T01:50:12.537Z,0
2019-02-04T01:51:23.540Z,0
2019-02-04T01:52:34.386Z,0
2019-02-04T01:53:45.003Z,0
2019-02-04T01:54:55.455Z,0
2019-02-04T01:56:05.520Z,0
2019-02-04T01:57:15.591Z,0
2019-02-04T01:58:25.405Z,0
2019-02-04T01:59:34.959Z,0
2019-02-04T02:00:45.118Z,0
2019-02-04T02:01:55.231Z,0
2019-02-04T02:03:05.056Z,0
2019-02-04T02:04:14.902Z,0
2019-02-04T02:05:24.961Z,0
2019-02-04T02:06:35.086Z,0
2019-02-04T02:07:45.163Z,0
2019-02-04T02:08:54.777Z,0
2019-02-04T02:10:04.980Z,0
2019-02-04T02:11:14.802Z,0
2019-02-04T02:12:24.913Z,0
2019-02-04T02:13:35.004Z,0
2019-02-04T02:14:44.824Z,0
2019-02-04T02:15:54.676Z,0
2019-02-04T02:17:04.521Z,0
2019-02-04T02:18:14.654Z,0
2019-02-04T02:19:24.879Z,0
2019-02-04T02:20:34.973Z,0
2019-02-04T02:21:44.806Z,0
2019-02-04T02:22:55.012Z,0
2019-02-04T02:24:05.088Z,0
2019-02-04T02:25:15.182Z,0
2019-02-04T02:26:25.291Z,0
2019-02-04T02:27:35.387Z,0
2019-02-04T02:28:45.475Z,0
2019-02-04T02:29:55.376Z,0
2019-02-04T02:31:05.472Z,0
2019-02-04T02:32:15.616Z,0
2019-02-04T02:33:25.740Z,0
2019-02-04T02:34:35.811Z,0
2019-02-04T02:35:45.685Z,0
2019-02-04T02:36:55.796Z,0
2019-02-04T02:38:05.642Z,0
2019-02-04T02:39:15.490Z,0
2019-02-04T02:40:25.321Z,0
2019-02-04T02:41:35.153Z,0
2019-02-04T02:42:45.232Z,0
2019-02-04T02:43:55.070Z,0
2019-02-04T02:45:06.933Z,0
2019-02-04T02:46:17.364Z,0
2019-02-04T02:47:38.054Z,0
2019-02-04T02:48:48.239Z,0
2019-02-04T02:49:58.330Z,0
2019-02-04T02:51:08.427Z,0
2019-02-04T02:52:18.540Z,0
2019-02-04T02:53:28.376Z,0
2019-02-04T02:54:38.449Z,0
2019-02-04T02:55:48.534Z,0
2019-02-04T02:56:58.373Z,0
2019-02-04T02:58:08.507Z,0
2019-02-04T02:59:18.592Z,0
2019-02-04T03:00:28.958Z,0
2019-02-04T03:01:38.791Z,0
2019-02-04T03:02:48.630Z,0
2019-02-04T03:34:26.762Z,0
2019-02-04T03:35:37.706Z,0
2019-02-04T03:36:47.874Z,0
2019-02-04T03:37:59.663Z,0
2019-02-04T03:39:09.879Z,0
2019-02-04T03:40:19.960Z,0
2019-02-04T03:41:29.531Z,0
2019-02-04T03:42:39.107Z,0
2019-02-04T03:43:49.188Z,0
2019-02-04T03:44:59.383Z,0
2019-02-04T03:46:09.297Z,0
2019-02-04T03:47:19.369Z,0
2019-02-04T03:48:28.698Z,0
2019-02-04T03:49:38.807Z,0
2019-02-04T03:50:48.894Z,0
2019-02-04T03:51:58.734Z,0
2019-02-04T03:53:08.812Z,0
2019-02-04T03:54:18.648Z,0
2019-02-04T03:55:27.975Z,0
2019-02-04T03:56:38.049Z,0
2019-02-04T03:57:48.126Z,0
2019-02-04T03:58:57.691Z,0
2019-02-04T04:00:08.765Z,0
2019-02-04T04:01:18.589Z,0
2019-02-04T04:02:28.654Z,0
2019-02-04T04:03:38.893Z,0
2019-02-04T04:04:48.978Z,0
2019-02-04T04:05:59.142Z,0
2019-02-04T04:07:09.235Z,0
2019-02-04T04:08:19.336Z,0
2019-02-04T04:09:29.245Z,0
2019-02-04T04:10:39.335Z,0
2019-02-04T04:11:49.159Z,0
2019-02-04T04:12:58.992Z,0
2019-02-04T04:14:09.216Z,0
2019-02-04T04:15:19.330Z,0
2019-02-04T04:16:29.160Z,0
2019-02-04T04:17:39.255Z,0
2019-02-04T04:18:49.359Z,0
2019-02-04T04:19:59.455Z,0
2019-02-04T04:21:09.535Z,0
2019-02-04T04:22:19.116Z,0
2019-02-04T04:23:29.190Z,0
2019-02-04T04:24:39.007Z,0
2019-02-04T04:25:48.825Z,0
2019-02-04T04:26:58.913Z,0
2019-02-04T04:28:09.439Z,0
2019-02-04T04:29:20.399Z,0
2019-02-04T04:30:31.346Z,0
2019-02-04T04:31:41.574Z,0
2019-02-04T04:32:52.555Z,0
2019-02-04T04:34:03.563Z,0
2019-02-04T04:35:13.462Z,0
2019-02-04T04:36:23.682Z,0
2019-02-04T04:37:33.772Z,0
2019-02-04T04:38:43.892Z,0
2019-02-04T04:39:53.969Z,0
2019-02-04T04:41:04.062Z,0
2019-02-04T04:42:14.129Z,0
2019-02-04T04:43:23.950Z,0
2019-02-04T04:44:34.073Z,0
2019-02-04T04:45:44.174Z,0
2019-02-04T04:46:53.760Z,0
2019-02-04T04:48:03.843Z,0
2019-02-04T04:49:13.922Z,0
2019-02-04T04:50:24.010Z,0
2019-02-04T04:51:34.083Z,0
2019-02-04T04:52:44.184Z,0
2019-02-04T04:53:54.283Z,0
2019-02-04T04:55:04.072Z,0
2019-02-04T04:56:13.995Z,0
2019-02-04T04:57:24.086Z,0
2019-02-04T04:58:33.662Z,0
2019-02-04T04:59:43.474Z,0
2019-02-04T05:00:53.547Z,0
2019-02-04T05:02:03.742Z,0
2019-02-04T05:03:13.811Z,0
2019-02-04T05:04:23.925Z,0
2019-02-04T05:05:34.120Z,0
2019-02-04T05:06:44.215Z,0
2019-02-04T05:07:54.350Z,0
2019-02-04T05:09:04.838Z,0
2019-02-04T05:10:14.951Z,0
2019-02-04T05:11:25.029Z,0
2019-02-04T05:12:34.855Z,0
2019-02-04T05:13:44.930Z,0
2019-02-04T05:14:54.250Z,0
2019-02-04T05:16:04.189Z,0
2019-02-04T05:17:14.276Z,0
2019-02-04T05:18:24.362Z,0
2019-02-04T05:19:34.474Z,0
2019-02-04T05:20:44.578Z,0
2019-02-04T05:21:54.391Z,0
2019-02-04T05:23:04.485Z,0
2019-02-04T05:24:14.621Z,0
2019-02-04T05:25:25.352Z,0
2019-02-04T05:26:38.059Z,0
2019-02-04T05:27:49.250Z,0
2019-02-04T05:28:59.492Z,0
2019-02-04T05:30:10.018Z,0
2019-02-04T05:31:20.022Z,0
2019-02-04T05:32:30.203Z,0
2019-02-04T05:33:40.015Z,0
2019-02-04T05:34:50.087Z,0
2019-02-04T05:35:59.905Z,0
2019-02-04T05:37:11.445Z,0
2019-02-04T05:38:21.252Z,0
2019-02-04T05:39:31.325Z,0
2019-02-04T05:40:41.449Z,0
2019-02-04T05:41:52.793Z,0
2019-02-04T05:43:02.884Z,0
2019-02-04T05:44:12.736Z,0
2019-02-04T05:45:22.588Z,0
2019-02-04T05:46:32.169Z,0
2019-02-04T05:47:42.003Z,0
2019-02-04T05:48:59.042Z,0
2019-02-04T05:50:09.123Z,0
2019-02-04T05:51:18.954Z,0
2019-02-04T05:52:28.793Z,0
2019-02-04T05:53:38.945Z,0
2019-02-04T05:54:49.016Z,0
2019-02-04T05:55:59.096Z,0
2019-02-04T05:57:09.477Z,0
2019-02-04T05:58:19.534Z,0
2019-02-04T05:59:29.427Z,0
2019-02-04T06:00:39.133Z,0
2019-02-04T06:01:49.210Z,0
2019-02-04T06:02:59.279Z,0
2019-02-04T06:04:09.359Z,0
2019-02-04T06:05:19.524Z,0
2019-02-04T06:06:29.342Z,0
2019-02-04T06:07:39.560Z,0
2019-02-04T06:08:49.646Z,0
2019-02-04T06:09:59.786Z,0
2019-02-04T06:11:09.406Z,0
2019-02-04T06:12:19.486Z,0
2019-02-04T06:13:29.416Z,0
2019-02-04T06:14:39.496Z,0
2019-02-04T06:15:50.329Z,0
2019-02-04T06:17:01.497Z,0
2019-02-04T06:18:12.585Z,0
2019-02-04T06:19:23.167Z,5
2019-02-04T06:20:33.594Z,5
2019-02-04T06:21:44.004Z,5
2019-02-04T06:22:54.493Z,5
2019-02-04T06:24:04.588Z,5
2019-02-04T06:25:14.691Z,5
2019-02-04T06:26:24.549Z,5
2019-02-04T06:27:34.390Z,5
2019-02-04T06:28:44.507Z,10
2019-02-04T06:29:54.581Z,10
2019-02-04T06:31:04.663Z,10
2019-02-04T06:32:14.518Z,10
2019-02-04T06:33:24.659Z,15
2019-02-04T06:34:34.751Z,15
2019-02-04T06:35:44.600Z,15
2019-02-04T06:36:54.448Z,15
2019-02-04T06:38:04.538Z,15
2019-02-04T06:39:15.057Z,15
2019-02-04T06:40:25.210Z,20
2019-02-04T06:41:35.288Z,20
2019-02-04T06:42:45.367Z,20
2019-02-04T06:43:55.432Z,25
2019-02-04T06:45:05.520Z,25
2019-02-04T06:46:15.651Z,25
2019-02-04T06:47:25.717Z,30
2019-02-04T06:48:35.536Z,30
2019-02-04T06:49:45.690Z,30
2019-02-04T06:50:58.287Z,35
2019-02-04T06:52:09.484Z,35
2019-02-04T06:53:19.563Z,35
2019-02-04T06:54:29.646Z,35
2019-02-04T06:55:39.733Z,40
2019-02-04T06:56:49.801Z,40
2019-02-04T06:57:59.679Z,40
2019-02-04T06:59:09.754Z,40
2019-02-04T07:00:20.649Z,45
2019-02-04T07:01:30.734Z,45
2019-02-04T07:02:40.831Z,45
2019-02-04T07:03:51.010Z,50
2019-02-04T07:05:01.083Z,50
2019-02-04T07:06:11.193Z,50
2019-02-04T07:07:22.543Z,50
2019-02-04T07:08:32.769Z,50
2019-02-04T07:09:43.579Z,50
2019-02-04T07:10:53.776Z,50
2019-02-04T07:12:05.293Z,55
2019-02-04T07:13:15.791Z,55
2019-02-04T07:14:26.840Z,55
2019-02-04T07:15:37.524Z,55
2019-02-04T07:16:47.866Z,60
2019-02-04T07:18:03.942Z,60
2019-02-04T07:19:23.663Z,60
2019-02-04T07:20:34.585Z,65
2019-02-04T07:21:44.397Z,65
2019-02-04T07:22:54.500Z,65
2019-02-04T07:24:04.587Z,65
2019-02-04T07:25:14.686Z,70
2019-02-04T07:26:24.512Z,70
2019-02-04T07:27:34.593Z,70
2019-02-04T07:28:44.792Z,70
2019-02-04T07:29:54.900Z,75
2019-02-04T07:31:05.027Z,75
2019-02-04T07:32:14.861Z,75
2019-02-04T07:33:24.964Z,75
2019-02-04T07:34:35.041Z,80
2019-02-04T07:35:45.107Z,80
2019-02-04T07:36:54.919Z,80
2019-02-04T07:38:04.732Z,80
2019-02-04T07:39:14.823Z,85
2019-02-04T07:40:24.656Z,85
2019-02-04T07:41:34.751Z,85
2019-02-04T07:42:44.853Z,85
2019-02-04T07:43:54.708Z,85
2019-02-04T07:45:04.789Z,85
2019-02-04T07:46:14.874Z,85
2019-02-04T07:47:24.956Z,85
2019-02-04T07:48:35.037Z,90
2019-02-04T07:49:45.369Z,90
2019-02-04T07:50:55.444Z,80
2019-02-04T07:52:05.524Z,75
2019-02-04T07:53:15.704Z,85
2019-02-04T07:54:25.794Z,70
2019-02-04T07:55:35.874Z,75
2019-02-04T07:56:45.956Z,70
2019-02-04T07:58:00.500Z,70
2019-02-04T07:59:11.289Z,75
2019-02-04T08:00:22.508Z,80
2019-02-04T08:01:33.046Z,80
2019-02-04T08:02:43.395Z,100
2019-02-04T08:03:53.269Z,90
2019-02-04T08:05:03.090Z,80
2019-02-04T08:06:12.657Z,85
2019-02-04T08:07:22.500Z,90
2019-02-04T08:08:34.447Z,85
2019-02-04T08:09:44.548Z,95
2019-02-04T08:10:54.629Z,100
2019-02-04T08:12:05.311Z,90
2019-02-04T08:13:15.382Z,95
2019-02-04T08:14:25.488Z,105
2019-02-04T08:15:35.364Z,100
2019-02-04T08:16:45.470Z,95
2019-02-04T08:17:55.032Z,95
2019-02-04T08:19:05.136Z,95
2019-02-04T08:20:15.246Z,105
2019-02-04T08:21:25.099Z,120
2019-02-04T08:22:34.717Z,115
2019-02-04T08:23:44.821Z,100
2019-02-04T08:24:54.899Z,105
2019-02-04T08:26:05.094Z,105
2019-02-04T08:27:15.243Z,110
2019-02-04T08:28:25.357Z,110
2019-02-04T08:29:35.444Z,105
2019-02-04T08:30:47.917Z,105
2019-02-04T08:31:57.751Z,105
2019-02-04T08:33:07.829Z,100
2019-02-04T08:34:17.687Z,100
2019-02-04T08:35:27.825Z,100
2019-02-04T08:36:49.289Z,105
2019-02-04T08:37:59.339Z,110
2019-02-04T08:39:09.459Z,115
2019-02-04T08:40:19.559Z,130
2019-02-04T08:41:29.695Z,145
2019-02-04T08:42:42.771Z,110
2019-02-04T08:43:53.493Z,110
2019-02-04T08:45:04.260Z,105
2019-02-04T08:46:15.301Z,105
2019-02-04T08:47:32.765Z,105
2019-02-04T08:48:42.390Z,105
2019-02-04T08:50:04.245Z,100
2019-02-04T08:51:14.375Z,95
2019-02-04T08:52:23.969Z,95
2019-02-04T08:53:34.093Z,90
2019-02-04T08:54:43.941Z,90
2019-02-04T08:55:54.050Z,90
2019-02-04T08:57:03.903Z,90
2019-02-04T08:58:13.758Z,95
2019-02-04T08:59:23.995Z,105
2019-02-04T09:00:34.032Z,105
2019-02-04T09:01:43.883Z,105
2019-02-04T09:02:53.772Z,105
2019-02-04T09:04:03.608Z,120
2019-02-04T09:05:13.492Z,110
2019-02-04T09:06:23.385Z,120
2019-02-04T09:07:33.477Z,140
2019-02-04T09:08:43.631Z,105
2019-02-04T09:09:53.467Z,95
2019-02-04T09:11:04.869Z,95
2019-02-04T09:12:15.068Z,100
2019-02-04T09:13:25.177Z,115
2019-02-04T09:14:35.285Z,105
2019-02-04T09:15:45.402Z,105
2019-02-04T09:16:55.264Z,115
2019-02-04T09:18:05.491Z,115
2019-02-04T09:19:15.620Z,110
2019-02-04T09:20:25.759Z,115
2019-02-04T09:21:35.869Z,125
2019-02-04T09:22:45.966Z,125
2019-02-04T09:23:55.833Z,125
2019-02-04T09:25:05.942Z,120
2019-02-04T09:26:16.102Z,125
2019-02-04T09:27:26.211Z,125
2019-02-04T09:28:39.474Z,110
2019-02-04T09:29:49.346Z,115
2019-02-04T09:30:59.182Z,130
2019-02-04T09:32:08.929Z,135
2019-02-04T09:33:18.779Z,135
2019-02-04T09:34:29.891Z,130
2019-02-04T09:35:40.065Z,130
2019-02-04T09:36:50.185Z,140
2019-02-04T09:38:01.934Z,155
2019-02-04T09:39:13.015Z,185
2019-02-04T09:40:24.292Z,130
2019-02-04T09:41:34.923Z,110
2019-02-04T09:42:45.787Z,110
2019-02-04T09:43:56.429Z,130
2019-02-04T09:45:06.838Z,120
2019-02-04T09:46:17.199Z,135
2019-02-04T09:47:27.325Z,220
2019-02-04T09:48:37.431Z,160
2019-02-04T09:49:47.360Z,155
2019-02-04T09:50:57.479Z,160
2019-02-04T09:52:07.066Z,150
2019-02-04T09:53:16.932Z,165
2019-02-04T09:54:27.030Z,220
2019-02-04T09:55:37.070Z,150
2019-02-04T09:56:46.923Z,220
2019-02-04T09:57:57.053Z,175
2019-02-04T09:59:07.164Z,155
2019-02-04T10:00:17.795Z,180
2019-02-04T10:01:27.887Z,150
2019-02-04T10:02:37.978Z,140
2019-02-04T10:03:48.049Z,130
2019-02-04T10:04:57.890Z,125
2019-02-04T10:06:07.988Z,135
2019-02-04T10:07:18.098Z,145
2019-02-04T10:08:27.919Z,140
2019-02-04T10:09:37.988Z,205
2019-02-04T10:10:47.815Z,205
2019-02-04T10:11:57.626Z,200
2019-02-04T10:13:07.470Z,230
2019-02-04T10:14:17.536Z,240
2019-02-04T10:15:27.785Z,230
2019-02-04T10:16:37.999Z,175
2019-02-04T10:17:47.938Z,140
2019-02-04T10:18:58.161Z,125
2019-02-04T10:20:08.351Z,115
2019-02-04T10:21:18.325Z,110
2019-02-04T10:22:28.552Z,130
2019-02-04T10:23:38.741Z,75
2019-02-04T10:24:49.058Z,65
2019-02-04T10:25:59.365Z,60
2019-02-04T10:27:09.358Z,55
2019-02-04T10:28:19.758Z,50
2019-02-04T10:29:29.744Z,50
2019-02-04T10:30:39.718Z,50
2019-02-04T10:31:49.841Z,55
2019-02-04T10:32:59.762Z,60
2019-02-04T10:34:09.851Z,75
2019-02-04T10:35:27.120Z,85
2019-02-04T10:36:37.999Z,90
2019-02-04T10:37:48.917Z,100
2019-02-04T10:38:58.955Z,105
2019-02-04T10:40:09.360Z,115
2019-02-04T10:41:19.557Z,125
2019-02-04T10:42:29.583Z,125
2019-02-04T10:43:39.938Z,135
2019-02-04T10:44:50.149Z,140
2019-02-04T10:46:00.171Z,145
2019-02-04T10:47:10.039Z,145
2019-02-04T10:48:20.358Z,150
2019-02-04T10:49:30.536Z,150
2019-02-04T10:50:53.049Z,150
2019-02-04T10:52:03.380Z,160
2019-02-04T10:53:13.751Z,180
2019-02-04T10:54:23.414Z,165
2019-02-04T10:55:33.661Z,170
2019-02-04T10:56:43.689Z,250
2019-02-04T10:57:53.714Z,225
2019-02-04T10:59:03.616Z,150
2019-02-04T11:00:14.516Z,150
2019-02-04T11:01:24.883Z,140
2019-02-04T11:02:34.828Z,130
2019-02-04T11:03:45.072Z,125
2019-02-04T11:04:55.330Z,115
2019-02-04T11:06:05.600Z,110
2019-02-04T11:07:15.649Z,115
2019-02-04T11:08:25.370Z,115
2019-02-04T11:09:35.710Z,115
2019-02-04T11:10:45.546Z,105
2019-02-04T11:11:55.798Z,95
2019-02-04T11:13:06.051Z,75
2019-02-04T11:14:16.044Z,75
2019-02-04T11:15:28.226Z,75
2019-02-04T11:16:38.325Z,75
2019-02-04T11:17:49.143Z,80
2019-02-04T11:19:00.386Z,80
2019-02-04T11:20:11.742Z,80
2019-02-04T11:21:22.389Z,75
2019-02-04T11:22:33.081Z,75
2019-02-04T11:23:43.859Z,70
2019-02-04T11:24:54.052Z,65
2019-02-04T11:26:04.275Z,55
2019-02-04T11:27:14.305Z,50
2019-02-04T11:28:24.417Z,50
2019-02-04T11:29:34.723Z,50
2019-02-04T11:30:45.079Z,50
2019-02-04T11:31:55.099Z,50
2019-02-04T11:33:05.366Z,50
2019-02-04T11:34:15.606Z,50
2019-02-04T11:35:25.771Z,55
2019-02-04T11:36:35.671Z,55
2019-02-04T11:37:45.962Z,60
2019-02-04T11:38:55.863Z,65
2019-02-04T11:40:05.972Z,65
2019-02-04T11:41:16.177Z,60
2019-02-04T11:42:26.179Z,65
2019-02-04T11:43:36.424Z,65
2019-02-04T11:44:46.379Z,60
2019-02-04T11:45:59.922Z,60
2019-02-04T11:47:09.861Z,55
2019-02-04T11:48:19.991Z,60
2019-02-04T11:49:29.827Z,65
2019-02-04T11:50:39.922Z,70
2019-02-04T11:51:50.033Z,75
2019-02-04T11:53:00.158Z,80
2019-02-04T11:54:11.862Z,80
2019-02-04T11:55:21.938Z,75
2019-02-04T11:56:32.049Z,70
2019-02-04T11:57:42.143Z,65
2019-02-04T11:58:51.955Z,65
2019-02-04T12:00:02.099Z,65
2019-02-04T12:01:11.948Z,65
2019-02-04T12:02:21.778Z,65
2019-02-04T12:03:32.908Z,65
2019-02-04T12:04:42.991Z,65
2019-02-04T12:05:52.594Z,65
2019-02-04T12:07:03.771Z,70
2019-02-04T12:08:14.204Z,75
2019-02-04T12:09:24.892Z,75
2019-02-04T12:10:35.852Z,75
2019-02-04T12:11:46.686Z,75
2019-02-04T12:12:57.613Z,70
2019-02-04T12:14:08.178Z,65
2019-02-04T12:15:18.772Z,60
2019-02-04T12:16:28.514Z,55
2019-02-04T12:17:38.705Z,55
2019-02-04T12:18:48.794Z,50
2019-02-04T12:19:58.628Z,50
2019-02-04T12:21:08.726Z,45
2019-02-04T12:22:18.831Z,45
2019-02-04T12:23:28.983Z,50
2019-02-04T12:24:39.110Z,55
2019-02-04T12:25:49.233Z,60
2019-02-04T12:26:59.243Z,65
2019-02-04T12:28:09.101Z,70
2019-02-04T12:29:19.212Z,75
2019-02-04T12:30:30.987Z,80
2019-02-04T12:31:41.247Z,85
2019-02-04T12:32:51.444Z,85
2019-02-04T12:34:01.549Z,85
2019-02-04T12:35:11.656Z,80
2019-02-04T12:36:21.749Z,75
2019-02-04T12:37:34.876Z,75
2019-02-04T12:38:45.025Z,75
2019-02-04T12:39:55.103Z,70
2019-02-04T12:41:05.373Z,65
2019-02-04T12:42:15.541Z,60
2019-02-04T12:43:28.367Z,50
2019-02-04T12:44:38.204Z,45
2019-02-04T12:45:48.287Z,45
2019-02-04T12:46:58.507Z,45
2019-02-04T12:48:10.642Z,45
2019-02-04T12:49:22.593Z,40
2019-02-04T12:50:32.678Z,45
2019-02-04T12:51:43.438Z,45
2019-02-04T12:52:53.280Z,45
2019-02-04T12:54:03.364Z,50
2019-02-04T12:55:13.444Z,50
2019-02-04T12:56:23.530Z,45
2019-02-04T12:57:33.637Z,45
2019-02-04T12:58:55.054Z,45
2019-02-04T13:00:06.112Z,40
2019-02-04T13:01:16.064Z,40
2019-02-04T13:02:25.905Z,45
2019-02-04T13:03:35.754Z,45
2019-02-04T13:04:45.601Z,45
2019-02-04T13:05:55.731Z,45
2019-02-04T13:07:06.417Z,45
2019-02-04T13:08:16.256Z,40
2019-02-04T13:09:26.329Z,40
2019-02-04T13:10:36.156Z,40
2019-02-04T13:11:46.244Z,40
2019-02-04T13:12:56.355Z,40
2019-02-04T13:14:06.446Z,40
2019-02-04T13:15:16.266Z,40
2019-02-04T13:16:26.085Z,40
2019-02-04T13:17:36.621Z,40
2019-02-04T13:18:46.723Z,40
2019-02-04T13:19:56.889Z,40
2019-02-04T13:21:07.003Z,40
2019-02-04T13:22:17.206Z,40
2019-02-04T13:23:27.331Z,45
2019-02-04T13:24:37.411Z,45
2019-02-04T13:25:47.524Z,50
2019-02-04T13:26:57.603Z,50
2019-02-04T13:28:07.227Z,50
2019-02-04T13:29:17.364Z,50
2019-02-04T13:30:27.464Z,50
2019-02-04T13:31:37.658Z,50
2019-02-04T13:32:47.723Z,50
2019-02-04T13:33:57.542Z,50
2019-02-04T13:35:07.941Z,50
2019-02-04T13:36:18.034Z,50
2019-02-04T13:37:27.857Z,50
2019-02-04T13:38:37.937Z,50
2019-02-04T13:39:48.035Z,45
2019-02-04T13:41:10.777Z,45
2019-02-04T13:42:22.856Z,45
2019-02-04T13:43:33.378Z,40
2019-02-04T13:44:43.953Z,40
2019-02-04T13:45:54.486Z,40
2019-02-04T13:47:05.742Z,40
2019-02-04T13:48:18.303Z,40
2019-02-04T13:49:28.175Z,40
2019-02-04T13:50:38.249Z,40
2019-02-04T13:51:59.168Z,40
2019-02-04T13:53:09.278Z,40
2019-02-04T13:54:19.105Z,40
2019-02-04T13:55:29.183Z,35
2019-02-04T13:56:39.120Z,35
2019-02-04T13:57:49.205Z,35
2019-02-04T13:58:59.073Z,35
2019-02-04T14:00:09.567Z,35
2019-02-04T14:01:19.682Z,35
2019-02-04T14:02:29.754Z,35
2019-02-04T14:03:39.852Z,35
2019-02-04T14:04:49.678Z,35
2019-02-04T14:05:59.868Z,35
2019-02-04T14:07:09.791Z,35
2019-02-04T14:08:19.856Z,35
2019-02-04T14:09:29.954Z,35
2019-02-04T14:10:40.071Z,40
2019-02-04T14:11:50.158Z,40
2019-02-04T14:13:00.313Z,40
2019-02-04T14:14:10.402Z,35
2019-02-04T14:15:20.478Z,35
2019-02-04T14:16:30.402Z,35
2019-02-04T14:17:40.651Z,35
2019-02-04T14:18:50.878Z,30
2019-02-04T14:20:00.954Z,30
2019-02-04T14:21:13.572Z,30
2019-02-04T14:22:24.704Z,30
2019-02-04T14:23:37.716Z,30
2019-02-04T14:24:48.305Z,30
2019-02-04T14:25:58.546Z,30
2019-02-04T14:27:08.379Z,30
2019-02-04T14:28:18.216Z,30
2019-02-04T14:29:28.064Z,30
2019-02-04T14:30:38.206Z,30
2019-02-04T14:31:48.289Z,30
2019-02-04T14:32:58.358Z,30
2019-02-04T14:34:11.283Z,25
2019-02-04T14:35:21.378Z,25
2019-02-04T14:36:31.264Z,25
2019-02-04T14:37:41.373Z,20
2019-02-04T14:38:51.206Z,20
2019-02-04T14:40:01.314Z,20
2019-02-04T14:41:11.411Z,20
2019-02-04T14:42:21.561Z,20
2019-02-04T14:43:31.678Z,20
2019-02-04T14:44:41.509Z,20
2019-02-04T14:45:55.761Z,20
2019-02-04T14:47:05.573Z,20
2019-02-04T14:48:15.854Z,20
2019-02-04T14:49:25.929Z,20
2019-02-04T14:50:35.815Z,20
2019-02-04T14:51:45.740Z,20
2019-02-04T14:52:55.556Z,20
2019-02-04T14:54:05.695Z,20
2019-02-04T14:55:15.781Z,20
2019-02-04T14:56:26.394Z,15
2019-02-04T14:57:36.503Z,15
2019-02-04T14:58:46.320Z,15
2019-02-04T14:59:56.182Z,15
2019-02-04T15:01:06.374Z,15
2019-02-04T15:02:16.238Z,15
2019-02-04T15:03:30.448Z,15
2019-02-04T15:04:41.112Z,15
2019-02-04T15:05:51.871Z,15
2019-02-04T15:07:02.481Z,15
2019-02-04T15:08:12.782Z,10
2019-02-04T15:09:24.881Z,10
2019-02-04T15:10:35.112Z,10
2019-02-04T15:11:45.291Z,10
2019-02-04T15:12:55.132Z,10
2019-02-04T15:14:05.212Z,10
2019-02-04T15:15:15.025Z,10
2019-02-04T15:16:26.752Z,10
2019-02-04T15:17:36.913Z,10
2019-02-04T15:18:46.986Z,10
2019-02-04T15:19:56.835Z,10
2019-02-04T15:21:06.934Z,10
2019-02-04T15:22:17.029Z,5
2019-02-04T15:23:27.208Z,5
2019-02-04T15:24:37.329Z,5
2019-02-04T15:25:47.172Z,5
2019-02-04T15:26:57.333Z,5
2019-02-04T15:28:08.916Z,5
2019-02-04T15:29:19.025Z,5
2019-02-04T15:30:29.088Z,5
2019-02-04T15:31:39.173Z,5
2019-02-04T15:32:49.139Z,5
2019-02-04T15:33:58.966Z,5
2019-02-04T15:35:14.545Z,5
2019-02-04T15:36:24.668Z,0
2019-02-04T15:37:34.501Z,0
2019-02-04T15:38:44.581Z,0
2019-02-04T15:39:54.647Z,0
2019-02-04T15:41:04.716Z,0
2019-02-04T15:42:15.083Z,0
2019-02-04T15:43:25.480Z,0
2019-02-04T15:44:36.450Z,0
2019-02-04T15:45:47.221Z,0
2019-02-04T15:46:58.006Z,0
2019-02-04T15:48:08.396Z,0
2019-02-04T15:49:18.745Z,0
2019-02-04T15:50:28.956Z,0
2019-02-04T15:51:39.053Z,0
2019-02-04T15:52:55.417Z,0
2019-02-04T15:54:06.158Z,0
2019-02-04T15:55:16.253Z,0
2019-02-04T15:56:26.340Z,0
2019-02-04T15:57:36.190Z,0
2019-02-04T15:58:46.284Z,0
2019-02-04T15:59:56.396Z,0
2019-02-04T16:01:09.583Z,0
2019-02-04T16:02:19.735Z,0
2019-02-04T16:03:29.847Z,0
2019-02-04T16:04:39.975Z,0
2019-02-04T16:05:50.089Z,0
2019-02-04T16:07:00.192Z,0
2019-02-04T16:08:10.698Z,0
2019-02-04T16:09:20.560Z,0
2019-02-04T16:10:30.413Z,0
2019-02-04T16:11:40.014Z,0
2019-02-04T16:12:52.775Z,0
2019-02-04T16:14:02.879Z,0
2019-02-04T16:15:12.717Z,0
2019-02-04T16:16:22.877Z,0
2019-02-04T16:17:32.965Z,0
2019-02-04T16:18:43.085Z,0
2019-02-04T16:19:55.939Z,0
2019-02-04T16:21:06.064Z,0
2019-02-04T16:22:16.154Z,0
2019-02-04T16:23:26.255Z,0
2019-02-04T16:24:36.155Z,0
2019-02-04T16:25:46.244Z,0
2019-02-04T16:26:56.309Z,0
2019-02-04T16:28:06.408Z,0
2019-02-04T16:29:17.178Z,0
2019-02-04T16:30:27.275Z,0
2019-02-04T16:31:38.291Z,0
2019-02-04T16:32:49.170Z,0
2019-02-04T16:33:59.555Z,0
2019-02-04T16:35:10.595Z,0
2019-02-04T16:36:21.272Z,0
2019-02-04T16:37:31.120Z,0
2019-02-04T16:38:41.099Z,0
2019-02-04T16:39:51.182Z,0
2019-02-04T16:41:01.017Z,0
2019-02-04T16:42:11.112Z,0
2019-02-04T16:43:21.203Z,0
2019-02-04T16:44:31.560Z,0
2019-02-04T16:45:41.399Z,0
2019-02-04T16:46:54.436Z,0
2019-02-04T16:48:04.816Z,0
2019-02-04T16:49:14.915Z,0
2019-02-04T16:50:25.026Z,0
2019-02-04T16:51:34.614Z,0
2019-02-04T16:52:44.446Z,0
2019-02-04T16:53:54.606Z,0
2019-02-04T16:55:04.341Z,0
2019-02-04T16:56:14.170Z,0
2019-02-04T16:57:24.292Z,0
2019-02-04T16:58:34.393Z,0
2019-02-04T16:59:44.640Z,0
2019-02-04T17:00:54.755Z,0
2019-02-04T17:02:04.840Z,0
2019-02-04T17:03:14.954Z,0
2019-02-04T17:04:24.540Z,0
2019-02-04T17:05:34.640Z,0
2019-02-04T17:06:44.828Z,0
2019-02-04T17:07:54.675Z,0
2019-02-04T17:09:07.217Z,0
2019-02-04T17:10:17.115Z,0
2019-02-04T17:11:27.315Z,0
2019-02-04T17:12:37.178Z,0
2019-02-04T17:13:47.299Z,0
2019-02-04T17:14:57.414Z,0
2019-02-04T17:16:09.724Z,0
2019-02-04T17:17:19.917Z,0
2019-02-04T17:18:29.746Z,0
2019-02-04T17:19:39.851Z,0
2019-02-04T17:20:52.057Z,0
2019-02-04T17:22:01.915Z,0
2019-02-04T17:23:24.274Z,0
2019-02-04T17:24:34.824Z,0
2019-02-04T17:25:45.233Z,0